Time;durP1;ratioP1;P1;durP2;ratioP2;P2;SDS_P1;SDS_P2;PMS_P1;PMS_P2;Temp;Humidity;BMP_temperature;BMP_pressure;BME280_temperature;BME280_humidity;BME280_pressure;Samples;Min_cycle;Max_cycle;Signal;HPM_P1;HPM_P2
2023/03/25 00:00:06;;;;;;;4.43;1.23;;;11.40;99.90;;;;;;5014755;28;20794;-84
2023/03/25 00:02:33;;;;;;;2.58;1.30;;;11.40;1.00;;;;;;5013663;28;20389;-86
2023/03/25 00:04:59;;;;;;;5.18;1.20;;;11.40;1.00;;;;;;5016036;28;20388;-85
2023/03/25 00:07:25;;;;;;;3.90;1.10;;;11.30;99.90;;;;;;5014163;28;20775;-86
2023/03/25 00:09:50;;;;;;;3.40;0.90;;;11.30;2.30;;;;;;5014330;28;20396;-87
2023/03/25 00:12:16;;;;;;;2.47;1.27;;;11.30;99.90;;;;;;5015441;28;20388;-86
2023/03/25 00:14:42;;;;;;;4.25;1.40;;;11.30;3.40;;;;;;5013527;28;20906;-87
2023/03/25 00:17:09;;;;;;;3.87;1.00;;;11.30;99.90;;;;;;5014142;28;20409;-85
2023/03/25 00:19:35;;;;;;;3.35;1.10;;;11.30;99.90;;;;;;5015752;28;20938;-86
2023/03/25 00:22:01;;;;;;;3.63;1.70;;;11.30;99.90;;;;;;5013794;28;20488;-86
2023/03/25 00:24:26;;;;;;;3.07;1.07;;;11.20;1.00;;;;;;5014812;28;20872;-86
2023/03/25 00:26:53;;;;;;;3.33;1.23;;;11.20;3.40;;;;;;5012567;28;20389;-86
2023/03/25 00:29:19;;;;;;;4.03;1.20;;;11.20;98.30;;;;;;5013827;28;20397;-86
2023/03/25 00:31:45;;;;;;;2.15;1.10;;;11.10;99.90;;;;;;5012440;28;20417;-86
2023/03/25 00:34:13;;;;;;;3.85;1.30;;;11.20;99.90;;;;;;5012939;28;20439;-85
2023/03/25 00:36:40;;;;;;;3.42;1.80;;;11.20;83.00;;;;;;5014521;28;20924;-85
2023/03/25 00:39:07;;;;;;;3.03;1.00;;;11.10;1.00;;;;;;5036577;28;20429;-85
2023/03/25 00:41:34;;;;;;;3.63;1.27;;;11.10;1.00;;;;;;5036677;28;20392;-85
2023/03/25 00:44:00;;;;;;;3.35;1.27;;;11.10;1.00;;;;;;5035353;28;20404;-84
2023/03/25 00:46:29;;;;;;;1.90;1.07;;;11.20;99.90;;;;;;5023135;28;20388;-86
2023/03/25 00:48:56;;;;;;;3.15;0.95;;;11.20;99.90;;;;;;5013928;28;20821;-86
2023/03/25 00:51:23;;;;;;;5.07;1.20;;;11.20;1.00;;;;;;5014293;28;20385;-85
2023/03/25 00:53:54;;;;;;;3.55;1.30;;;11.20;90.80;;;;;;5012937;28;20393;-86
2023/03/25 00:56:23;;;;;;;4.35;1.10;;;11.10;99.90;;;;;;5015347;28;20444;-86
2023/03/25 00:58:49;;;;;;;4.80;1.27;;;11.00;1.00;;;;;;5013334;28;20446;-86
2023/03/25 01:01:25;;;;;;;4.00;1.35;;;10.90;99.90;;;;;;5012667;28;20396;-85
2023/03/25 01:03:58;;;;;;;3.10;1.35;;;11.00;99.90;;;;;;5007873;28;20476;-86
2023/03/25 01:06:28;;;;;;;3.40;1.27;;;10.90;99.90;;;;;;5008549;28;20392;-86
2023/03/25 01:08:56;;;;;;;3.00;1.50;;;11.00;51.80;;;;;;5012952;28;20414;-85
2023/03/25 01:11:25;;;;;;;5.35;1.40;;;11.00;1.00;;;;;;5014173;28;20401;-86
2023/03/25 01:13:52;;;;;;;3.90;1.20;;;11.00;3.90;;;;;;5013691;28;20393;-85
2023/03/25 01:16:18;;;;;;;2.38;1.23;;;11.00;1.00;;;;;;5012430;28;20488;-87
2023/03/25 01:18:44;;;;;;;2.40;1.00;;;10.90;1.00;;;;;;5013041;28;20417;-86
2023/03/25 01:21:09;;;;;;;4.80;1.20;;;10.90;1.00;;;;;;5012131;28;20388;-86
2023/03/25 01:23:35;;;;;;;4.53;1.40;;;10.90;1.00;;;;;;5013541;28;20416;-85
2023/03/25 01:26:00;;;;;;;4.50;1.07;;;10.90;1.00;;;;;;5011972;28;20836;-85
2023/03/25 01:28:27;;;;;;;2.42;1.00;;;10.90;99.90;;;;;;5012361;28;20435;-85
2023/03/25 01:31:00;;;;;;;5.30;1.40;;;10.90;99.90;;;;;;5012215;28;20389;-86
2023/03/25 01:33:26;;;;;;;3.40;1.20;;;10.90;99.90;;;;;;5013550;28;20815;-85
2023/03/25 01:35:51;;;;;;;4.30;1.30;;;10.90;99.90;;;;;;5011736;28;20461;-85
2023/03/25 01:38:17;;;;;;;5.37;1.27;;;10.90;21.20;;;;;;5012308;28;20791;-85
2023/03/25 01:40:45;;;;;;;4.67;1.83;;;10.90;1.00;;;;;;5012011;28;20385;-85
2023/03/25 01:43:12;;;;;;;4.60;1.50;;;10.90;1.00;;;;;;5012114;28;20424;-86
2023/03/25 01:45:38;;;;;;;3.17;1.27;;;11.00;99.90;;;;;;5014583;28;20421;-86
2023/03/25 01:48:14;;;;;;;3.35;1.10;;;10.90;1.00;;;;;;5012915;28;20425;-86
2023/03/25 01:50:43;;;;;;;4.70;1.10;;;11.00;1.00;;;;;;5011760;28;20389;-86
2023/03/25 01:53:10;;;;;;;3.28;1.40;;;11.00;99.90;;;;;;5013280;28;20424;-86
2023/03/25 01:55:36;;;;;;;4.43;1.17;;;10.90;99.90;;;;;;5010536;28;21043;-86
2023/03/25 01:58:09;;;;;;;3.55;1.33;;;10.90;1.00;;;;;;5011740;28;20775;-86
2023/03/25 02:00:36;;;;;;;7.10;2.20;;;10.70;99.90;;;;;;5011933;28;20539;-85
2023/03/25 02:03:02;;;;;;;5.43;1.50;;;10.30;1.00;;;;;;5015217;28;20389;-86
2023/03/25 02:05:51;;;;;;;5.18;1.45;;;10.00;99.90;;;;;;5015721;28;20396;-84
2023/03/25 02:08:17;;;;;;;5.30;1.50;;;9.80;99.90;;;;;;5014849;28;20393;-86
2023/03/25 02:10:47;;;;;;;4.63;1.40;;;9.40;99.90;;;;;;5010620;28;20827;-86
2023/03/25 02:13:57;;;;;;;3.40;1.10;;;9.10;99.90;;;;;;5012132;28;20393;-86
2023/03/25 02:16:57;;;;;;;10.20;1.80;;;8.80;99.90;;;;;;5006753;28;20926;-86
2023/03/25 02:19:51;;;;;;;3.77;1.30;;;8.80;99.90;;;;;;5005597;28;20404;-86
2023/03/25 02:22:53;;;;;;;4.70;1.20;;;8.80;99.90;;;;;;5014362;28;20442;-86
2023/03/25 02:25:53;;;;;;;2.50;1.40;;;8.80;99.90;;;;;;5011676;28;20420;-86
2023/03/25 02:28:25;;;;;;;2.20;0.80;;;9.30;99.90;;;;;;5017904;28;20381;-83
2023/03/25 02:30:50;;;;;;;2.83;0.70;;;8.50;99.90;;;;;;5020864;28;20384;-84
2023/03/25 02:33:52;;;;;;;1.30;0.70;;;8.50;99.90;;;;;;5021672;28;20404;-85
2023/03/25 02:36:40;;;;;;;0.98;0.55;;;8.60;99.90;;;;;;5016427;28;20405;-84
2023/03/25 02:39:31;;;;;;;1.52;0.50;;;8.50;99.20;;;;;;5018743;28;20469;-88
2023/03/25 02:42:07;;;;;;;1.17;0.45;;;8.60;27.80;;;;;;5016629;28;20795;-85
2023/03/25 02:44:52;;;;;;;0.80;0.50;;;8.60;1.00;;;;;;5023985;28;20381;-85
2023/03/25 02:47:20;;;;;;;1.80;0.50;;;8.60;1.00;;;;;;5017721;28;20395;-88
2023/03/25 02:49:53;;;;;;;1.00;0.60;;;8.60;1.00;;;;;;5018266;28;20450;-84
2023/03/25 02:52:27;;;;;;;1.30;0.50;;;8.50;1.00;;;;;;5018793;28;20407;-85
2023/03/25 02:54:57;;;;;;;0.90;0.40;;;8.50;41.30;;;;;;5024054;28;20405;-89
2023/03/25 02:57:27;;;;;;;0.90;0.70;;;8.50;1.00;;;;;;5012280;28;20490;-88
2023/03/25 02:59:55;;;;;;;0.60;0.50;;;8.50;1.00;;;;;;5011675;28;20389;-90
2023/03/25 03:02:24;;;;;;;1.97;0.50;;;8.40;1.00;;;;;;5011675;28;20389;-90
2023/03/25 03:04:55;;;;;;;1.02;0.70;;;8.40;1.00;;;;;;5011191;28;20763;-88
2023/03/25 03:07:30;;;;;;;1.90;0.60;;;8.40;1.00;;;;;;5011252;28;20388;-88
2023/03/25 03:10:05;;;;;;;1.33;0.52;;;8.40;1.00;;;;;;5012176;28;20483;-89
2023/03/25 03:12:40;;;;;;;0.60;0.60;;;8.80;1.00;;;;;;5012335;28;20396;-89
2023/03/25 03:15:15;;;;;;;0.90;0.50;;;8.30;1.00;;;;;;5011125;28;20720;-88
2023/03/25 03:18:05;;;;;;;1.50;0.50;;;8.30;98.30;;;;;;5010949;28;20484;-87
2023/03/25 03:20:49;;;;;;;1.30;0.50;;;8.30;48.40;;;;;;5012181;28;20898;-90
2023/03/25 03:23:27;;;;;;;0.80;0.50;;;8.30;1.00;;;;;;5010770;28;20401;-89
2023/03/25 03:26:05;;;;;;;1.90;0.50;;;8.20;1.00;;;;;;5010197;28;20393;-89
2023/03/25 03:28:44;;;;;;;2.40;0.80;;;8.40;1.00;;;;;;5010987;28;20397;-88
2023/03/25 03:31:18;;;;;;;1.85;0.60;;;8.30;1.00;;;;;;5010997;28;20389;-88
2023/03/25 03:34:01;;;;;;;1.80;0.60;;;8.40;1.00;;;;;;5010989;28;20455;-88
2023/03/25 03:36:39;;;;;;;2.40;0.63;;;8.40;1.00;;;;;;5008772;28;20761;-88
2023/03/25 03:39:18;;;;;;;7.10;0.88;;;8.40;1.00;;;;;;5011962;28;20388;-88
2023/03/25 03:41:46;;;;;;;2.80;0.40;;;8.40;1.00;;;;;;5012026;28;20461;-89
2023/03/25 03:44:15;;;;;;;2.08;0.75;;;8.50;1.00;;;;;;5013455;28;20400;-87
2023/03/25 03:46:53;;;;;;;0.93;0.50;;;9.10;1.00;;;;;;5013632;28;20464;-87
2023/03/25 03:49:23;;;;;;;2.00;0.60;;;8.50;1.00;;;;;;5013530;28;20403;-89
2023/03/25 03:52:07;;;;;;;1.13;0.60;;;9.70;1.00;;;;;;5012512;28;20810;-87
2023/03/25 03:54:41;;;;;;;0.90;0.60;;;8.60;1.00;;;;;;5011840;28;20871;-86
2023/03/25 03:57:30;;;;;;;0.95;0.50;;;8.50;1.00;;;;;;5009628;28;20417;-87
2023/03/25 04:00:08;;;;;;;2.07;0.70;;;8.60;1.00;;;;;;5004956;28;20455;-87
2023/03/25 04:03:01;;;;;;;1.40;0.50;;;8.70;1.00;;;;;;5010973;28;20388;-88
2023/03/25 04:05:31;;;;;;;0.93;0.50;;;8.60;1.00;;;;;;4991340;28;20389;-87
2023/03/25 04:08:01;;;;;;;2.20;0.60;;;8.70;1.00;;;;;;4996408;28;20482;-87
2023/03/25 04:11:09;;;;;;;2.37;0.70;;;8.60;1.00;;;;;;5004099;28;20916;-87
2023/03/25 04:13:39;;;;;;;1.08;0.60;;;8.70;1.00;;;;;;4992082;28;20779;-85
2023/03/25 04:16:06;;;;;;;1.83;0.50;;;8.60;1.00;;;;;;5010640;28;20409;-84
2023/03/25 04:18:32;;;;;;;2.58;1.00;;;8.70;1.00;;;;;;5011580;28;20383;-84
2023/03/25 04:20:59;;;;;;;1.88;0.60;;;8.70;1.00;;;;;;5015400;28;20385;-84
2023/03/25 04:23:28;;;;;;;1.40;0.50;;;8.70;1.00;;;;;;5022029;28;20424;-85
2023/03/25 04:25:54;;;;;;;0.90;0.40;;;8.70;1.00;;;;;;5030518;28;20415;-83
2023/03/25 04:28:20;;;;;;;1.20;0.50;;;8.70;1.00;;;;;;5028717;28;20456;-83
2023/03/25 04:30:47;;;;;;;1.80;0.50;;;8.70;1.00;;;;;;5025056;28;20393;-83
2023/03/25 04:33:13;;;;;;;2.13;0.63;;;8.70;1.00;;;;;;5025489;28;20401;-82
2023/03/25 04:35:39;;;;;;;1.27;0.50;;;8.70;1.00;;;;;;5024838;28;20405;-81
2023/03/25 04:38:05;;;;;;;3.13;0.60;;;8.70;1.00;;;;;;5021511;28;20404;-83
2023/03/25 04:40:31;;;;;;;1.65;0.50;;;8.70;1.00;;;;;;5019977;28;20385;-83
2023/03/25 04:42:57;;;;;;;1.60;0.90;;;8.70;1.00;;;;;;5018538;28;20389;-83
2023/03/25 04:45:24;;;;;;;1.10;0.40;;;8.60;1.00;;;;;;5017372;28;20400;-83
2023/03/25 04:47:52;;;;;;;2.63;0.57;;;8.50;1.00;;;;;;5016043;28;20438;-82
2023/03/25 04:50:28;;;;;;;1.83;0.43;;;8.40;99.90;;;;;;5017514;28;20397;-83
2023/03/25 04:52:56;;;;;;;0.90;0.40;;;8.30;99.90;;;;;;5019996;28;20901;-84
2023/03/25 04:55:21;;;;;;;1.30;0.50;;;8.00;99.90;;;;;;5018776;28;20451;-84
2023/03/25 04:57:49;;;;;;;1.50;0.40;;;7.80;99.90;;;;;;5019145;28;20400;-83
2023/03/25 05:00:19;;;;;;;1.30;0.57;;;7.80;99.90;;;;;;5016720;28;20391;-85
2023/03/25 05:02:47;;;;;;;1.50;0.30;;;7.80;99.90;;;;;;5013432;28;20392;-85
2023/03/25 05:05:17;;;;;;;0.90;0.50;;;7.70;99.90;;;;;;5013467;28;20420;-85
2023/03/25 05:07:48;;;;;;;0.70;0.40;;;7.70;99.90;;;;;;5014151;28;20460;-84
2023/03/25 05:10:14;;;;;;;1.00;0.50;;;7.70;99.90;;;;;;5017054;28;20821;-85
2023/03/25 05:12:40;;;;;;;0.70;0.35;;;7.80;99.90;;;;;;5035102;28;20375;-83
2023/03/25 05:15:07;;;;;;;1.17;0.40;;;7.80;99.90;;;;;;5034778;28;20386;-83
2023/03/25 05:17:32;;;;;;;1.57;0.30;;;7.80;99.90;;;;;;5018022;28;20411;-84
2023/03/25 05:19:58;;;;;;;1.20;0.40;;;7.80;99.90;;;;;;5037475;28;20387;-83
2023/03/25 05:22:23;;;;;;;1.00;0.40;;;7.80;99.90;;;;;;5036840;28;20383;-83
2023/03/25 05:24:52;;;;;;;0.60;0.40;;;7.80;99.90;;;;;;5039128;28;20391;-82
2023/03/25 05:27:19;;;;;;;0.80;0.50;;;7.80;99.90;;;;;;5020099;28;20401;-84
2023/03/25 05:29:45;;;;;;;0.90;0.30;;;7.80;99.90;;;;;;5015005;28;20396;-83
2023/03/25 05:32:12;;;;;;;0.80;0.40;;;7.80;99.90;;;;;;5015938;28;20481;-83
2023/03/25 05:34:38;;;;;;;1.80;0.40;;;7.80;99.90;;;;;;5016221;28;20882;-82
2023/03/25 05:37:06;;;;;;;1.20;0.50;;;7.80;99.90;;;;;;5015634;28;20437;-83
2023/03/25 05:39:32;;;;;;;1.80;0.40;;;7.90;99.90;;;;;;5015560;28;20392;-83
2023/03/25 05:42:01;;;;;;;1.65;0.70;;;7.90;99.90;;;;;;5016728;28;20395;-83
2023/03/25 05:44:27;;;;;;;1.30;0.40;;;8.00;99.90;;;;;;5014728;28;20447;-82
2023/03/25 05:46:53;;;;;;;1.08;0.40;;;8.00;99.90;;;;;;5014421;28;20393;-81
2023/03/25 05:49:18;;;;;;;1.20;0.57;;;8.00;99.90;;;;;;5014709;28;20389;-82
2023/03/25 05:51:44;;;;;;;2.40;0.70;;;8.00;99.90;;;;;;5015000;28;20402;-82
2023/03/25 05:54:10;;;;;;;2.13;0.93;;;8.00;99.90;;;;;;5014442;28;20400;-82
2023/03/25 05:56:38;;;;;;;2.30;0.60;;;8.10;99.90;;;;;;5014821;28;20408;-83
2023/03/25 05:59:03;;;;;;;0.90;0.40;;;8.10;99.90;;;;;;5012695;28;20396;-82
2023/03/25 06:01:29;;;;;;;3.50;0.60;;;8.20;99.90;;;;;;5014632;28;20393;-81
2023/03/25 06:03:56;;;;;;;2.20;0.60;;;8.20;99.90;;;;;;5013833;28;20461;-81
2023/03/25 06:06:24;;;;;;;3.43;0.80;;;8.30;99.90;;;;;;5015878;28;20460;-81
2023/03/25 06:08:50;;;;;;;2.70;0.60;;;8.30;99.90;;;;;;5014852;28;20471;-81
2023/03/25 06:11:17;;;;;;;5.53;0.90;;;8.30;99.90;;;;;;5016294;28;20435;-81
2023/03/25 06:13:48;;;;;;;1.73;0.70;;;8.40;99.90;;;;;;5029249;28;20416;-80
2023/03/25 06:16:17;;;;;;;2.28;0.77;;;8.40;99.90;;;;;;5028754;28;20400;-79
2023/03/25 06:18:43;;;;;;;1.33;0.60;;;8.50;99.90;;;;;;5026846;28;20382;-80
2023/03/25 06:21:10;;;;;;;3.00;1.70;;;8.50;99.90;;;;;;5019352;28;20417;-82
2023/03/25 06:23:38;;;;;;;2.38;0.90;;;8.50;99.90;;;;;;5015755;28;20389;-81
2023/03/25 06:26:04;;;;;;;3.30;0.80;;;8.60;99.90;;;;;;5014295;28;20395;-81
2023/03/25 06:28:30;;;;;;;3.75;1.15;;;8.70;99.90;;;;;;5013623;28;20399;-83
2023/03/25 06:30:55;;;;;;;1.60;0.95;;;8.80;99.90;;;;;;5012719;28;20479;-82
2023/03/25 06:33:21;;;;;;;2.50;0.90;;;8.80;99.90;;;;;;5012787;28;20393;-82
2023/03/25 06:35:53;;;;;;;1.90;0.90;;;8.80;99.90;;;;;;5012192;28;20404;-82
2023/03/25 06:38:22;;;;;;;3.35;1.10;;;8.90;99.90;;;;;;5013597;28;20837;-82
2023/03/25 06:40:48;;;;;;;4.80;1.00;;;8.90;99.90;;;;;;5014745;28;20381;-83
2023/03/25 06:43:14;;;;;;;2.17;0.70;;;9.00;99.90;;;;;;5012986;28;20604;-82
2023/03/25 06:45:40;;;;;;;1.80;0.88;;;8.90;99.90;;;;;;5012409;28;20449;-82
2023/03/25 06:48:07;;;;;;;3.75;0.90;;;9.00;99.90;;;;;;5014580;28;20990;-82
2023/03/25 06:50:32;;;;;;;2.90;1.27;;;9.10;99.90;;;;;;5013391;28;20401;-82
2023/03/25 06:52:58;;;;;;;2.83;1.00;;;9.10;78.80;;;;;;5013676;28;20546;-82
2023/03/25 06:55:24;;;;;;;5.53;1.10;;;9.20;83.20;;;;;;5012734;28;20798;-83
2023/03/25 06:57:53;;;;;;;5.87;1.10;;;9.20;1.00;;;;;;5013465;28;20396;-82
2023/03/25 07:00:22;;;;;;;1.65;0.70;;;9.20;5.60;;;;;;5014305;28;20431;-82
2023/03/25 07:02:47;;;;;;;4.60;1.10;;;9.20;19.40;;;;;;5013212;28;20404;-83
2023/03/25 07:05:13;;;;;;;4.30;1.60;;;9.20;1.00;;;;;;5014667;28;20385;-82
2023/03/25 07:07:39;;;;;;;2.80;1.10;;;9.20;1.00;;;;;;5014496;28;20761;-82
2023/03/25 07:10:06;;;;;;;2.67;0.70;;;9.30;1.00;;;;;;5021557;28;20492;-80
2023/03/25 07:12:33;;;;;;;2.33;0.77;;;9.20;1.00;;;;;;5019945;28;20419;-81
2023/03/25 07:14:59;;;;;;;2.45;0.90;;;9.10;1.00;;;;;;5015328;28;20400;-81
2023/03/25 07:17:24;;;;;;;2.60;1.00;;;9.10;1.00;;;;;;5013339;28;20416;-81
2023/03/25 07:19:50;;;;;;;1.75;0.98;;;9.20;1.00;;;;;;5013251;28;20725;-82
2023/03/25 07:22:15;;;;;;;3.20;0.97;;;9.20;1.00;;;;;;5014172;28;20424;-81
2023/03/25 07:24:41;;;;;;;2.38;1.10;;;9.40;1.00;;;;;;5012282;28;20396;-81
2023/03/25 07:27:10;;;;;;;2.60;1.00;;;9.50;1.00;;;;;;5012397;28;20389;-81
2023/03/25 07:29:35;;;;;;;3.55;0.90;;;9.60;1.00;;;;;;5015990;28;20439;-82
2023/03/25 07:32:01;;;;;;;3.43;1.10;;;9.50;1.00;;;;;;5013512;28;20886;-81
2023/03/25 07:34:26;;;;;;;3.27;1.00;;;9.50;1.00;;;;;;5014384;28;20388;-81
2023/03/25 07:36:52;;;;;;;4.57;1.20;;;9.50;1.00;;;;;;5015579;28;20420;-81
2023/03/25 07:39:17;;;;;;;3.30;1.10;;;9.50;1.00;;;;;;5013743;28;20399;-82
2023/03/25 07:41:43;;;;;;;3.20;1.00;;;9.50;1.00;;;;;;5022107;28;20396;-83
2023/03/25 07:44:09;;;;;;;3.33;1.05;;;9.60;1.00;;;;;;5016360;28;20388;-82
2023/03/25 07:46:35;;;;;;;5.68;1.30;;;9.50;1.00;;;;;;5010771;28;20385;-83
2023/03/25 07:49:00;;;;;;;5.13;1.10;;;9.40;5.50;;;;;;5011545;28;20891;-81
2023/03/25 07:51:26;;;;;;;2.67;1.00;;;9.30;99.90;;;;;;5014463;28;20392;-85
2023/03/25 07:53:51;;;;;;;2.73;1.10;;;9.10;99.90;;;;;;5018269;28;20393;-85
2023/03/25 07:56:17;;;;;;;4.70;1.40;;;8.90;99.90;;;;;;5018649;28;20495;-84
2023/03/25 07:58:43;;;;;;;2.10;1.20;;;8.80;99.90;;;;;;5020461;28;20838;-83
2023/03/25 08:01:09;;;;;;;3.50;1.50;;;8.80;99.90;;;;;;5019993;28;20389;-84
2023/03/25 08:03:37;;;;;;;3.10;1.00;;;8.90;99.90;;;;;;5022138;28;20799;-83
2023/03/25 08:06:03;;;;;;;2.47;1.20;;;8.90;99.90;;;;;;5019403;28;20878;-83
2023/03/25 08:08:29;;;;;;;5.30;1.40;;;9.00;99.90;;;;;;5017034;28;20399;-82
2023/03/25 08:10:55;;;;;;;4.75;1.33;;;9.00;99.90;;;;;;5017220;28;20437;-84
2023/03/25 08:13:21;;;;;;;5.00;1.30;;;9.10;99.90;;;;;;5019863;28;20430;-83
2023/03/25 08:15:46;;;;;;;4.80;1.33;;;9.20;84.20;;;;;;5018844;28;20420;-81
2023/03/25 08:18:12;;;;;;;3.90;1.10;;;9.30;97.60;;;;;;5019158;28;20396;-81
2023/03/25 08:20:38;;;;;;;2.90;0.90;;;9.40;1.00;;;;;;5020015;28;20869;-85
2023/03/25 08:23:09;;;;;;;3.13;1.10;;;9.50;1.00;;;;;;5019803;28;20395;-84
2023/03/25 08:25:38;;;;;;;0.77;0.50;;;9.60;1.00;;;;;;5019559;28;20476;-83
2023/03/25 08:28:05;;;;;;;1.17;0.60;;;9.70;1.00;;;;;;5019164;28;20378;-84
2023/03/25 08:30:37;;;;;;;0.85;0.50;;;9.70;1.00;;;;;;5018487;28;20558;-83
2023/03/25 08:33:04;;;;;;;0.93;0.60;;;9.70;1.00;;;;;;5018509;28;20782;-83
2023/03/25 08:35:29;;;;;;;2.55;0.70;;;9.60;1.00;;;;;;5019509;28;20463;-85
2023/03/25 08:37:55;;;;;;;2.30;0.60;;;9.60;1.00;;;;;;5021171;28;20484;-83
2023/03/25 08:40:21;;;;;;;1.50;0.40;;;9.50;1.00;;;;;;5026063;28;20385;-82
2023/03/25 08:42:46;;;;;;;0.80;0.40;;;9.60;1.00;;;;;;5026052;28;20396;-83
2023/03/25 08:45:14;;;;;;;1.20;0.50;;;9.60;1.00;;;;;;5026436;28;20396;-83
2023/03/25 08:47:41;;;;;;;1.60;0.70;;;9.50;1.00;;;;;;5018819;28;20451;-84
2023/03/25 08:50:07;;;;;;;1.20;0.40;;;9.40;1.00;;;;;;5016810;28;20395;-84
2023/03/25 08:52:32;;;;;;;0.50;0.30;;;9.50;1.00;;;;;;5016021;28;20393;-83
2023/03/25 08:54:58;;;;;;;0.70;0.40;;;9.60;1.00;;;;;;5017763;28;20775;-82
2023/03/25 08:57:23;;;;;;;1.00;0.50;;;9.50;1.00;;;;;;5015690;28;20480;-81
2023/03/25 08:59:49;;;;;;;0.70;0.30;;;9.50;1.00;;;;;;5026859;28;20957;-82
2023/03/25 09:02:15;;;;;;;0.80;0.40;;;9.40;1.00;;;;;;5021378;28;20392;-81
2023/03/25 09:04:40;;;;;;;0.50;0.40;;;9.30;1.00;;;;;;5016766;28;20396;-82
2023/03/25 09:07:09;;;;;;;1.90;0.50;;;9.30;1.00;;;;;;5015642;28;20493;-82
2023/03/25 09:09:36;;;;;;;0.68;0.40;;;9.40;1.00;;;;;;5017054;28;20400;-82
2023/03/25 09:12:01;;;;;;;0.77;0.30;;;9.20;1.00;;;;;;5015838;28;20394;-82
2023/03/25 09:14:27;;;;;;;1.17;0.30;;;9.20;1.00;;;;;;5017017;28;20443;-82
2023/03/25 09:16:53;;;;;;;0.80;0.40;;;9.20;1.00;;;;;;5015749;28;20393;-82
2023/03/25 09:19:18;;;;;;;0.40;0.23;;;9.40;1.00;;;;;;5017224;28;20747;-82
2023/03/25 09:21:44;;;;;;;1.00;0.40;;;9.60;1.00;;;;;;5017190;28;20875;-82
2023/03/25 09:24:11;;;;;;;1.20;0.30;;;9.50;1.00;;;;;;5019304;28;20871;-82
2023/03/25 09:26:36;;;;;;;0.40;0.22;;;9.50;99.90;;;;;;5023330;28;20381;-82
2023/03/25 09:29:02;;;;;;;0.45;0.20;;;9.50;1.00;;;;;;5017434;28;20397;-82
2023/03/25 09:31:28;;;;;;;0.40;0.30;;;9.60;99.90;;;;;;5016359;28;20424;-83
2023/03/25 09:33:53;;;;;;;0.40;0.20;;;9.70;99.90;;;;;;5019046;28;20902;-83
2023/03/25 09:36:19;;;;;;;0.40;0.30;;;9.70;99.90;;;;;;5026494;28;20401;-81
2023/03/25 09:38:45;;;;;;;0.40;0.30;;;9.90;99.90;;;;;;5029189;28;20760;-81
2023/03/25 09:41:28;;;;;;;0.60;0.30;;;10.00;99.90;;;;;;5023425;28;20411;-83
2023/03/25 09:44:03;;;;;;;1.10;0.40;;;9.70;99.90;;;;;;5031527;28;20381;-83
2023/03/25 09:46:29;;;;;;;0.50;0.40;;;9.80;1.00;;;;;;5022709;28;20396;-82
2023/03/25 09:48:55;;;;;;;0.40;0.40;;;9.80;1.00;;;;;;5015495;28;20393;-83
2023/03/25 09:51:26;;;;;;;0.60;0.40;;;9.70;1.00;;;;;;5021529;28;20404;-83
2023/03/25 09:54:34;;;;;;;0.80;0.40;;;9.70;1.00;;;;;;5025873;28;20388;-82
2023/03/25 09:57:07;;;;;;;0.50;0.30;;;9.70;1.00;;;;;;5022451;28;20447;-82
2023/03/25 09:59:41;;;;;;;0.60;0.35;;;9.50;1.00;;;;;;5016938;28;20446;-82
2023/03/25 10:02:20;;;;;;;0.60;0.38;;;9.40;1.00;;;;;;5026354;28;20412;-84
2023/03/25 10:05:12;;;;;;;0.50;0.30;;;9.50;1.00;;;;;;5021019;28;20874;-85
2023/03/25 10:08:03;;;;;;;0.60;0.30;;;9.60;1.00;;;;;;5017376;28;20388;-86
2023/03/25 10:10:38;;;;;;;1.30;0.30;;;9.80;1.00;;;;;;5012837;28;20397;-84
2023/03/25 10:13:33;;;;;;;0.50;0.30;;;9.80;99.90;;;;;;5007348;28;20386;-90
2023/03/25 10:16:40;;;;;;;0.60;0.40;;;9.90;99.90;;;;;;5011334;28;20504;-88
2023/03/25 10:19:33;;;;;;;1.58;0.50;;;9.90;99.90;;;;;;5013713;28;20393;-88
2023/03/25 10:22:05;;;;;;;1.20;0.40;;;9.90;99.90;;;;;;5014533;28;20388;-90
2023/03/25 10:24:37;;;;;;;0.90;0.40;;;10.20;99.90;;;;;;5014631;28;20389;-88
2023/03/25 10:27:16;;;;;;;0.47;0.30;;;10.20;16.20;;;;;;5013575;28;20404;-88
2023/03/25 10:30:13;;;;;;;0.43;0.40;;;10.30;1.00;;;;;;5012649;28;20388;-88
2023/03/25 10:33:10;;;;;;;0.80;0.30;;;10.60;1.00;;;;;;5011767;28;20832;-88
2023/03/25 10:35:41;;;;;;;1.50;0.50;;;10.90;1.00;;;;;;5008524;28;20412;-89
2023/03/25 10:38:19;;;;;;;0.60;0.50;;;10.90;99.90;;;;;;5014324;28;20455;-89
2023/03/25 10:40:51;;;;;;;0.60;0.40;;;10.80;99.90;;;;;;5012685;28;20452;-89
2023/03/25 10:43:22;;;;;;;1.00;0.40;;;10.80;99.90;;;;;;5012366;28;20389;-88
2023/03/25 10:45:49;;;;;;;1.10;0.40;;;11.10;99.90;;;;;;5012034;28;21054;-89
2023/03/25 10:48:30;;;;;;;1.27;0.55;;;11.20;1.00;;;;;;5015109;28;20804;-89
2023/03/25 10:51:10;;;;;;;1.07;0.40;;;11.40;1.00;;;;;;5014176;28;20453;-90
2023/03/25 10:53:36;;;;;;;1.10;0.50;;;11.50;1.00;;;;;;5012317;28;20772;-90
2023/03/25 10:56:04;;;;;;;2.30;0.60;;;11.50;1.00;;;;;;5012675;28;20416;-89
2023/03/25 10:58:31;;;;;;;0.70;0.30;;;11.50;24.00;;;;;;5021374;28;20371;-90
2023/03/25 11:01:00;;;;;;;0.90;0.50;;;11.70;1.00;;;;;;5032873;28;20404;-89
2023/03/25 11:03:30;;;;;;;1.80;0.50;;;11.70;99.90;;;;;;5034436;28;20392;-89
2023/03/25 11:05:56;;;;;;;1.85;0.50;;;11.40;99.90;;;;;;5024102;28;20393;-89
2023/03/25 11:08:23;;;;;;;2.30;0.60;;;11.80;99.90;;;;;;5012003;28;20863;-89
2023/03/25 11:10:55;;;;;;;1.25;0.63;;;11.40;1.00;;;;;;5012760;28;20389;-89
2023/03/25 11:13:25;;;;;;;1.20;0.50;;;11.70;99.90;;;;;;5012242;28;20483;-90
2023/03/25 11:15:53;;;;;;;3.00;0.73;;;12.30;1.00;;;;;;5010911;28;20832;-89
2023/03/25 11:18:28;;;;;;;1.45;0.70;;;11.90;99.90;;;;;;5012404;28;20910;-90
2023/03/25 11:21:05;;;;;;;2.50;0.80;;;12.00;1.00;;;;;;5012663;28;20910;-89
2023/03/25 11:23:34;;;;;;;1.00;0.70;;;11.90;1.00;;;;;;5013715;28;20385;-90
2023/03/25 11:26:17;;;;;;;1.80;0.60;;;12.70;1.00;;;;;;5012578;28;20962;-88
2023/03/25 11:28:50;;;;;;;2.30;0.70;;;13.00;99.90;;;;;;5013602;28;20403;-90
2023/03/25 11:31:18;;;;;;;1.27;0.57;;;12.60;99.90;;;;;;5011693;28;20401;-90
2023/03/25 11:33:46;;;;;;;2.00;0.70;;;12.90;99.90;;;;;;5010418;28;20437;-89
2023/03/25 11:36:16;;;;;;;1.00;0.70;;;13.40;1.00;;;;;;4997311;28;20413;-90
2023/03/25 11:38:46;;;;;;;2.50;0.60;;;13.70;99.90;;;;;;5010785;28;20393;-89
2023/03/25 11:41:13;;;;;;;2.10;0.70;;;13.60;99.90;;;;;;5000747;28;20445;-89
2023/03/25 11:43:39;;;;;;;2.07;0.80;;;13.30;99.90;;;;;;4997532;28;20451;-89
2023/03/25 11:46:17;;;;;;;0.98;0.65;;;13.00;99.90;;;;;;4992378;28;20398;-87
2023/03/25 11:48:45;;;;;;;1.75;0.65;;;12.80;99.90;;;;;;4993398;28;20849;-89
2023/03/25 11:51:14;;;;;;;2.80;0.70;;;12.40;1.00;;;;;;5011846;28;20398;-89
2023/03/25 11:53:56;;;;;;;3.22;1.40;;;12.40;1.00;;;;;;4991454;28;20406;-88
2023/03/25 11:56:27;;;;;;;3.40;0.90;;;12.50;1.00;;;;;;4990734;28;20410;-88
2023/03/25 11:58:58;;;;;;;1.70;0.80;;;12.40;1.00;;;;;;4991194;28;20391;-87
2023/03/25 12:01:27;;;;;;;1.10;0.70;;;12.10;1.00;;;;;;4990643;28;20793;-87
2023/03/25 12:04:10;;;;;;;2.13;0.80;;;12.20;99.90;;;;;;4996755;28;20383;-88
2023/03/25 12:06:36;;;;;;;1.85;0.70;;;12.40;99.90;;;;;;5005639;28;20396;-88
2023/03/25 12:09:07;;;;;;;1.80;0.77;;;12.30;1.00;;;;;;5014172;28;20385;-88
2023/03/25 12:12:06;;;;;;;2.40;0.90;;;12.40;43.60;;;;;;5037901;28;20453;-88
2023/03/25 12:14:44;;;;;;;1.27;0.90;;;13.10;97.40;;;;;;5040462;28;20410;-88
2023/03/25 12:17:22;;;;;;;2.50;0.70;;;12.90;99.90;;;;;;5031239;28;20403;-88
2023/03/25 12:20:06;;;;;;;1.35;0.60;;;13.30;99.90;;;;;;5030647;28;20418;-88
2023/03/25 12:22:47;;;;;;;1.30;0.60;;;13.60;1.00;;;;;;5031574;28;20394;-88
2023/03/25 12:25:35;;;;;;;1.77;0.60;;;14.10;99.90;;;;;;5030536;28;20391;-89
2023/03/25 12:28:14;;;;;;;1.00;0.83;;;15.40;1.00;;;;;;5025654;28;20397;-88
2023/03/25 12:31:00;;;;;;;1.27;0.60;;;15.60;1.00;;;;;;5008460;28;20511;-84
2023/03/25 12:33:46;;;;;;;2.10;0.60;;;16.60;99.90;;;;;;5010839;28;20389;-84
2023/03/25 12:36:47;;;;;;;1.55;0.93;;;16.30;99.90;;;;;;5009685;28;20408;-85
2023/03/25 12:39:22;;;;;;;1.50;0.60;;;15.70;99.90;;;;;;5010344;28;20385;-87
2023/03/25 12:42:11;;;;;;;0.90;0.60;;;15.50;99.90;;;;;;5014123;28;20808;-86
2023/03/25 12:44:58;;;;;;;1.20;0.52;;;14.50;1.00;;;;;;5014041;28;20387;-87
2023/03/25 12:47:33;;;;;;;1.00;0.70;;;14.70;1.00;;;;;;5012600;28;20404;-87
2023/03/25 12:50:10;;;;;;;1.50;0.60;;;14.10;1.00;;;;;;5012862;28;20407;-86
2023/03/25 12:52:55;;;;;;;1.33;0.93;;;14.40;1.00;;;;;;5014559;28;20828;-86
2023/03/25 12:55:48;;;;;;;1.23;0.63;;;15.30;99.90;;;;;;5012685;28;20935;-88
2023/03/25 12:58:34;;;;;;;1.85;0.80;;;16.20;99.90;;;;;;5013079;28;20475;-87
2023/03/25 13:01:27;;;;;;;1.92;0.70;;;15.20;99.90;;;;;;5012860;28;20755;-86
2023/03/25 13:04:22;;;;;;;1.00;0.50;;;14.00;1.00;;;;;;4990794;28;20429;-86
2023/03/25 13:07:03;;;;;;;2.50;1.00;;;13.50;59.00;;;;;;5024633;28;20393;-87
2023/03/25 13:09:53;;;;;;;2.00;0.80;;;13.40;99.90;;;;;;5031817;28;20384;-86
2023/03/25 13:12:36;;;;;;;2.25;0.88;;;13.10;1.00;;;;;;5007329;28;20470;-87
2023/03/25 13:15:22;;;;;;;1.40;0.70;;;12.80;1.00;;;;;;4994104;28;20391;-87
2023/03/25 13:18:29;;;;;;;2.80;0.80;;;12.60;99.90;;;;;;4994238;28;20413;-87
2023/03/25 13:21:00;;;;;;;1.60;0.80;;;12.50;1.00;;;;;;4995475;28;20445;-87